sensor_id;sensor_type;location;lat;lon;timestamp;P1;durP1;ratioP1;P2;durP2;ratioP2
36663;SDS011;53333;51.976;20.144;2023-09-07T00:00:14;19.27;;;12.65;;
36663;SDS011;53333;51.976;20.144;2023-09-07T00:02:48;24.98;;;14.15;;
36663;SDS011;53333;51.976;20.144;2023-09-07T00:05:21;20.95;;;13.30;;
36663;SDS011;53333;51.976;20.144;2023-09-07T00:07:54;21.50;;;13.57;;
36663;SDS011;53333;51.976;20.144;2023-09-07T00:10:29;25.60;;;14.50;;
36663;SDS011;53333;51.976;20.144;2023-09-07T00:13:03;24.98;;;14.48;;
36663;SDS011;53333;51.976;20.144;2023-09-07T00:15:36;21.88;;;13.90;;
36663;SDS011;53333;51.976;20.144;2023-09-07T00:18:10;19.80;;;12.80;;
36663;SDS011;53333;51.976;20.144;2023-09-07T00:20:43;22.08;;;14.57;;
36663;SDS011;53333;51.976;20.144;2023-09-07T00:23:16;18.58;;;12.45;;
36663;SDS011;53333;51.976;20.144;2023-09-07T00:25:50;26.00;;;13.23;;
36663;SDS011;53333;51.976;20.144;2023-09-07T00:28:23;23.27;;;14.50;;
36663;SDS011;53333;51.976;20.144;2023-09-07T00:30:57;20.25;;;13.65;;
36663;SDS011;53333;51.976;20.144;2023-09-07T00:33:30;22.08;;;14.85;;
36663;SDS011;53333;51.976;20.144;2023-09-07T00:36:03;22.10;;;14.15;;
36663;SDS011;53333;51.976;20.144;2023-09-07T00:38:36;23.33;;;14.90;;
36663;SDS011;53333;51.976;20.144;2023-09-07T00:41:11;22.20;;;14.38;;
36663;SDS011;53333;51.976;20.144;2023-09-07T00:43:45;25.80;;;14.43;;
36663;SDS011;53333;51.976;20.144;2023-09-07T00:46:18;21.95;;;14.52;;
36663;SDS011;53333;51.976;20.144;2023-09-07T00:48:52;20.00;;;13.80;;
36663;SDS011;53333;51.976;20.144;2023-09-07T00:51:26;22.58;;;12.88;;
36663;SDS011;53333;51.976;20.144;2023-09-07T00:53:59;19.45;;;12.05;;
36663;SDS011;53333;51.976;20.144;2023-09-07T00:56:34;18.65;;;12.75;;
36663;SDS011;53333;51.976;20.144;2023-09-07T00:59:08;17.52;;;12.65;;
36663;SDS011;53333;51.976;20.144;2023-09-07T01:01:44;16.02;;;12.10;;
36663;SDS011;53333;51.976;20.144;2023-09-07T01:04:17;18.40;;;11.82;;
36663;SDS011;53333;51.976;20.144;2023-09-07T01:06:51;23.00;;;11.40;;
36663;SDS011;53333;51.976;20.144;2023-09-07T01:09:29;18.60;;;12.48;;
36663;SDS011;53333;51.976;20.144;2023-09-07T01:12:06;24.23;;;13.38;;
36663;SDS011;53333;51.976;20.144;2023-09-07T01:14:42;20.80;;;12.85;;
36663;SDS011;53333;51.976;20.144;2023-09-07T01:19:48;16.97;;;11.97;;
36663;SDS011;53333;51.976;20.144;2023-09-07T01:22:24;22.23;;;14.70;;
36663;SDS011;53333;51.976;20.144;2023-09-07T01:24:57;22.15;;;14.85;;
36663;SDS011;53333;51.976;20.144;2023-09-07T01:27:31;21.85;;;14.07;;
36663;SDS011;53333;51.976;20.144;2023-09-07T01:32:38;20.92;;;13.75;;
36663;SDS011;53333;51.976;20.144;2023-09-07T01:35:11;20.17;;;13.65;;
36663;SDS011;53333;51.976;20.144;2023-09-07T01:37:49;19.90;;;13.30;;
36663;SDS011;53333;51.976;20.144;2023-09-07T01:40:22;20.55;;;14.77;;
36663;SDS011;53333;51.976;20.144;2023-09-07T01:42:55;21.85;;;14.55;;
36663;SDS011;53333;51.976;20.144;2023-09-07T01:45:28;17.65;;;13.45;;
36663;SDS011;53333;51.976;20.144;2023-09-07T01:48:01;19.52;;;12.15;;
36663;SDS011;53333;51.976;20.144;2023-09-07T01:50:36;19.38;;;13.52;;
36663;SDS011;53333;51.976;20.144;2023-09-07T01:53:10;18.38;;;12.35;;
36663;SDS011;53333;51.976;20.144;2023-09-07T01:55:43;18.13;;;12.65;;
36663;SDS011;53333;51.976;20.144;2023-09-07T01:58:16;21.35;;;12.98;;
36663;SDS011;53333;51.976;20.144;2023-09-07T02:00:50;18.83;;;13.05;;
36663;SDS011;53333;51.976;20.144;2023-09-07T02:03:23;17.40;;;12.73;;
36663;SDS011;53333;51.976;20.144;2023-09-07T02:05:56;20.05;;;14.18;;
36663;SDS011;53333;51.976;20.144;2023-09-07T02:08:30;18.90;;;12.48;;
36663;SDS011;53333;51.976;20.144;2023-09-07T02:11:05;18.42;;;11.82;;
36663;SDS011;53333;51.976;20.144;2023-09-07T02:13:41;21.02;;;12.80;;
36663;SDS011;53333;51.976;20.144;2023-09-07T02:16:14;17.80;;;12.98;;
36663;SDS011;53333;51.976;20.144;2023-09-07T02:18:48;21.60;;;13.52;;
36663;SDS011;53333;51.976;20.144;2023-09-07T02:21:22;17.80;;;13.02;;
36663;SDS011;53333;51.976;20.144;2023-09-07T02:23:56;22.02;;;12.80;;
36663;SDS011;53333;51.976;20.144;2023-09-07T02:26:29;22.83;;;13.02;;
36663;SDS011;53333;51.976;20.144;2023-09-07T02:29:03;17.45;;;13.32;;
36663;SDS011;53333;51.976;20.144;2023-09-07T02:31:38;20.15;;;12.98;;
36663;SDS011;53333;51.976;20.144;2023-09-07T02:34:11;18.00;;;12.30;;
36663;SDS011;53333;51.976;20.144;2023-09-07T02:36:47;18.90;;;12.65;;
36663;SDS011;53333;51.976;20.144;2023-09-07T02:39:21;19.25;;;12.25;;
36663;SDS011;53333;51.976;20.144;2023-09-07T02:41:57;17.77;;;12.75;;
36663;SDS011;53333;51.976;20.144;2023-09-07T02:44:33;22.38;;;13.07;;
36663;SDS011;53333;51.976;20.144;2023-09-07T02:47:07;21.17;;;13.27;;
36663;SDS011;53333;51.976;20.144;2023-09-07T02:49:44;19.05;;;12.35;;
36663;SDS011;53333;51.976;20.144;2023-09-07T02:52:17;22.00;;;12.98;;
36663;SDS011;53333;51.976;20.144;2023-09-07T02:54:51;22.23;;;13.63;;
36663;SDS011;53333;51.976;20.144;2023-09-07T02:57:24;19.50;;;13.30;;
36663;SDS011;53333;51.976;20.144;2023-09-07T02:59:57;25.20;;;14.68;;
36663;SDS011;53333;51.976;20.144;2023-09-07T03:02:31;21.38;;;12.75;;
36663;SDS011;53333;51.976;20.144;2023-09-07T03:05:04;28.60;;;14.75;;
36663;SDS011;53333;51.976;20.144;2023-09-07T03:10:12;20.47;;;12.90;;
36663;SDS011;53333;51.976;20.144;2023-09-07T03:12:48;22.50;;;14.07;;
36663;SDS011;53333;51.976;20.144;2023-09-07T03:15:23;25.10;;;14.75;;
36663;SDS011;53333;51.976;20.144;2023-09-07T03:17:56;26.95;;;13.82;;
36663;SDS011;53333;51.976;20.144;2023-09-07T03:20:29;23.42;;;14.15;;
36663;SDS011;53333;51.976;20.144;2023-09-07T03:23:02;20.20;;;15.80;;
36663;SDS011;53333;51.976;20.144;2023-09-07T03:25:37;22.13;;;14.50;;
36663;SDS011;53333;51.976;20.144;2023-09-07T03:28:10;22.58;;;15.13;;
36663;SDS011;53333;51.976;20.144;2023-09-07T03:30:43;23.88;;;15.65;;
36663;SDS011;53333;51.976;20.144;2023-09-07T03:33:16;24.48;;;14.90;;
36663;SDS011;53333;51.976;20.144;2023-09-07T03:35:49;21.25;;;15.60;;
36663;SDS011;53333;51.976;20.144;2023-09-07T03:38:23;19.40;;;15.43;;
36663;SDS011;53333;51.976;20.144;2023-09-07T03:40:57;23.90;;;15.85;;
36663;SDS011;53333;51.976;20.144;2023-09-07T03:43:30;23.95;;;15.60;;
36663;SDS011;53333;51.976;20.144;2023-09-07T03:46:03;25.52;;;15.68;;
36663;SDS011;53333;51.976;20.144;2023-09-07T03:48:36;30.33;;;16.45;;
36663;SDS011;53333;51.976;20.144;2023-09-07T03:51:12;23.58;;;15.90;;
36663;SDS011;53333;51.976;20.144;2023-09-07T03:53:45;24.83;;;16.70;;
36663;SDS011;53333;51.976;20.144;2023-09-07T03:56:20;24.30;;;16.17;;
36663;SDS011;53333;51.976;20.144;2023-09-07T03:58:53;28.65;;;15.32;;
36663;SDS011;53333;51.976;20.144;2023-09-07T04:01:26;25.58;;;15.77;;
36663;SDS011;53333;51.976;20.144;2023-09-07T04:03:59;23.05;;;15.80;;
36663;SDS011;53333;51.976;20.144;2023-09-07T04:06:32;24.98;;;15.98;;
36663;SDS011;53333;51.976;20.144;2023-09-07T04:09:05;25.95;;;15.50;;
36663;SDS011;53333;51.976;20.144;2023-09-07T04:11:39;21.80;;;14.82;;
36663;SDS011;53333;51.976;20.144;2023-09-07T04:14:12;23.25;;;14.98;;
36663;SDS011;53333;51.976;20.144;2023-09-07T04:16:45;23.48;;;15.88;;
36663;SDS011;53333;51.976;20.144;2023-09-07T04:19:18;23.77;;;15.80;;
36663;SDS011;53333;51.976;20.144;2023-09-07T04:21:51;22.10;;;14.75;;
36663;SDS011;53333;51.976;20.144;2023-09-07T04:24:24;27.67;;;15.80;;
36663;SDS011;53333;51.976;20.144;2023-09-07T04:27:00;29.83;;;15.77;;
36663;SDS011;53333;51.976;20.144;2023-09-07T04:29:34;21.48;;;15.55;;
36663;SDS011;53333;51.976;20.144;2023-09-07T04:32:08;30.08;;;15.98;;
36663;SDS011;53333;51.976;20.144;2023-09-07T04:34:41;25.10;;;15.68;;
36663;SDS011;53333;51.976;20.144;2023-09-07T04:37:14;29.33;;;15.57;;
36663;SDS011;53333;51.976;20.144;2023-09-07T04:39:49;27.75;;;15.35;;
36663;SDS011;53333;51.976;20.144;2023-09-07T04:42:24;23.50;;;15.25;;
36663;SDS011;53333;51.976;20.144;2023-09-07T04:44:57;26.58;;;15.55;;
36663;SDS011;53333;51.976;20.144;2023-09-07T04:47:31;26.40;;;15.55;;
36663;SDS011;53333;51.976;20.144;2023-09-07T04:50:04;29.50;;;15.40;;
36663;SDS011;53333;51.976;20.144;2023-09-07T04:52:39;24.75;;;16.95;;
36663;SDS011;53333;51.976;20.144;2023-09-07T04:55:12;32.97;;;16.15;;
36663;SDS011;53333;51.976;20.144;2023-09-07T04:57:46;26.75;;;15.70;;
36663;SDS011;53333;51.976;20.144;2023-09-07T05:00:22;30.70;;;15.20;;
36663;SDS011;53333;51.976;20.144;2023-09-07T05:02:55;35.72;;;14.50;;
36663;SDS011;53333;51.976;20.144;2023-09-07T05:05:28;30.95;;;13.90;;
36663;SDS011;53333;51.976;20.144;2023-09-07T05:08:01;55.00;;;15.93;;
36663;SDS011;53333;51.976;20.144;2023-09-07T05:10:36;35.78;;;14.63;;
36663;SDS011;53333;51.976;20.144;2023-09-07T05:13:12;36.65;;;15.30;;
36663;SDS011;53333;51.976;20.144;2023-09-07T05:15:48;33.50;;;16.35;;
36663;SDS011;53333;51.976;20.144;2023-09-07T05:18:22;32.80;;;17.55;;
36663;SDS011;53333;51.976;20.144;2023-09-07T05:20:55;35.70;;;15.65;;
36663;SDS011;53333;51.976;20.144;2023-09-07T05:23:28;53.00;;;16.67;;
36663;SDS011;53333;51.976;20.144;2023-09-07T05:26:01;39.88;;;17.08;;
36663;SDS011;53333;51.976;20.144;2023-09-07T05:33:43;46.28;;;14.68;;
36663;SDS011;53333;51.976;20.144;2023-09-07T05:36:16;39.90;;;16.75;;
36663;SDS011;53333;51.976;20.144;2023-09-07T05:38:49;47.40;;;14.73;;
36663;SDS011;53333;51.976;20.144;2023-09-07T05:41:22;41.47;;;14.70;;
36663;SDS011;53333;51.976;20.144;2023-09-07T05:43:57;40.22;;;14.48;;
36663;SDS011;53333;51.976;20.144;2023-09-07T05:46:30;40.28;;;14.68;;
36663;SDS011;53333;51.976;20.144;2023-09-07T05:49:03;45.28;;;15.45;;
36663;SDS011;53333;51.976;20.144;2023-09-07T05:51:36;43.13;;;16.52;;
36663;SDS011;53333;51.976;20.144;2023-09-07T05:54:10;42.83;;;15.00;;
36663;SDS011;53333;51.976;20.144;2023-09-07T05:56:43;47.83;;;16.60;;
36663;SDS011;53333;51.976;20.144;2023-09-07T05:59:17;51.75;;;18.42;;
36663;SDS011;53333;51.976;20.144;2023-09-07T06:01:51;53.10;;;17.30;;
36663;SDS011;53333;51.976;20.144;2023-09-07T06:04:24;49.63;;;18.55;;
36663;SDS011;53333;51.976;20.144;2023-09-07T06:06:57;61.25;;;17.63;;
36663;SDS011;53333;51.976;20.144;2023-09-07T06:09:30;72.07;;;19.85;;
36663;SDS011;53333;51.976;20.144;2023-09-07T06:12:03;67.22;;;18.55;;
36663;SDS011;53333;51.976;20.144;2023-09-07T06:14:38;49.78;;;17.23;;
36663;SDS011;53333;51.976;20.144;2023-09-07T06:17:11;57.75;;;17.30;;
36663;SDS011;53333;51.976;20.144;2023-09-07T06:19:47;56.25;;;17.73;;
36663;SDS011;53333;51.976;20.144;2023-09-07T06:22:20;38.65;;;16.17;;
36663;SDS011;53333;51.976;20.144;2023-09-07T06:24:54;53.13;;;16.88;;
36663;SDS011;53333;51.976;20.144;2023-09-07T06:27:27;32.75;;;14.45;;
36663;SDS011;53333;51.976;20.144;2023-09-07T06:32:35;34.10;;;13.52;;
36663;SDS011;53333;51.976;20.144;2023-09-07T06:35:10;26.65;;;13.45;;
36663;SDS011;53333;51.976;20.144;2023-09-07T06:37:43;28.23;;;12.93;;
36663;SDS011;53333;51.976;20.144;2023-09-07T06:40:18;21.23;;;11.70;;
36663;SDS011;53333;51.976;20.144;2023-09-07T06:42:55;21.80;;;13.13;;
36663;SDS011;53333;51.976;20.144;2023-09-07T06:45:32;24.33;;;12.43;;
36663;SDS011;53333;51.976;20.144;2023-09-07T06:48:06;19.35;;;10.98;;
36663;SDS011;53333;51.976;20.144;2023-09-07T06:50:40;23.58;;;9.85;;
36663;SDS011;53333;51.976;20.144;2023-09-07T06:55:46;18.23;;;9.48;;
36663;SDS011;53333;51.976;20.144;2023-09-07T06:58:18;18.95;;;9.15;;
36663;SDS011;53333;51.976;20.144;2023-09-07T07:00:56;20.02;;;9.43;;
36663;SDS011;53333;51.976;20.144;2023-09-07T07:03:30;18.90;;;8.85;;
36663;SDS011;53333;51.976;20.144;2023-09-07T07:08:36;18.95;;;7.90;;
36663;SDS011;53333;51.976;20.144;2023-09-07T07:11:09;16.17;;;7.60;;
36663;SDS011;53333;51.976;20.144;2023-09-07T07:13:42;18.70;;;8.15;;
36663;SDS011;53333;51.976;20.144;2023-09-07T07:16:17;16.58;;;8.13;;
36663;SDS011;53333;51.976;20.144;2023-09-07T07:18:50;22.27;;;8.00;;
36663;SDS011;53333;51.976;20.144;2023-09-07T07:21:23;14.25;;;6.55;;
36663;SDS011;53333;51.976;20.144;2023-09-07T07:23:57;16.10;;;6.57;;
36663;SDS011;53333;51.976;20.144;2023-09-07T07:26:30;16.23;;;6.78;;
36663;SDS011;53333;51.976;20.144;2023-09-07T07:29:04;19.75;;;7.20;;
36663;SDS011;53333;51.976;20.144;2023-09-07T07:31:39;17.27;;;6.85;;
36663;SDS011;53333;51.976;20.144;2023-09-07T07:34:12;14.85;;;6.93;;
36663;SDS011;53333;51.976;20.144;2023-09-07T07:36:46;19.52;;;8.00;;
36663;SDS011;53333;51.976;20.144;2023-09-07T07:41:52;14.45;;;6.93;;
36663;SDS011;53333;51.976;20.144;2023-09-07T07:44:25;15.18;;;6.47;;
36663;SDS011;53333;51.976;20.144;2023-09-07T07:49:32;20.92;;;6.43;;
36663;SDS011;53333;51.976;20.144;2023-09-07T07:52:06;15.77;;;5.90;;
36663;SDS011;53333;51.976;20.144;2023-09-07T07:57:12;8.93;;;5.75;;
36663;SDS011;53333;51.976;20.144;2023-09-07T07:59:45;13.38;;;6.10;;
36663;SDS011;53333;51.976;20.144;2023-09-07T08:02:20;13.27;;;5.68;;
36663;SDS011;53333;51.976;20.144;2023-09-07T08:04:53;14.18;;;6.28;;
36663;SDS011;53333;51.976;20.144;2023-09-07T08:07:26;12.95;;;5.57;;
36663;SDS011;53333;51.976;20.144;2023-09-07T08:09:59;13.48;;;5.72;;
36663;SDS011;53333;51.976;20.144;2023-09-07T08:12:32;12.05;;;5.07;;
36663;SDS011;53333;51.976;20.144;2023-09-07T08:15:05;9.85;;;5.15;;
36663;SDS011;53333;51.976;20.144;2023-09-07T08:17:40;18.25;;;5.60;;
36663;SDS011;53333;51.976;20.144;2023-09-07T08:20:14;10.75;;;5.82;;
36663;SDS011;53333;51.976;20.144;2023-09-07T08:22:48;16.10;;;5.22;;
36663;SDS011;53333;51.976;20.144;2023-09-07T08:25:21;12.73;;;4.90;;
36663;SDS011;53333;51.976;20.144;2023-09-07T08:27:55;9.40;;;4.88;;
36663;SDS011;53333;51.976;20.144;2023-09-07T08:30:30;13.13;;;4.53;;
36663;SDS011;53333;51.976;20.144;2023-09-07T08:33:05;10.60;;;4.82;;
36663;SDS011;53333;51.976;20.144;2023-09-07T08:35:38;11.85;;;4.50;;
36663;SDS011;53333;51.976;20.144;2023-09-07T08:38:15;10.15;;;4.00;;
36663;SDS011;53333;51.976;20.144;2023-09-07T08:40:50;12.88;;;4.32;;
36663;SDS011;53333;51.976;20.144;2023-09-07T08:43:23;5.20;;;3.80;;
36663;SDS011;53333;51.976;20.144;2023-09-07T08:46:02;6.68;;;4.15;;
36663;SDS011;53333;51.976;20.144;2023-09-07T08:48:42;4.72;;;3.65;;
36663;SDS011;53333;51.976;20.144;2023-09-07T08:51:15;4.97;;;2.80;;
36663;SDS011;53333;51.976;20.144;2023-09-07T08:53:51;6.53;;;2.92;;
36663;SDS011;53333;51.976;20.144;2023-09-07T08:56:24;4.30;;;2.92;;
36663;SDS011;53333;51.976;20.144;2023-09-07T08:58:57;5.03;;;2.75;;
36663;SDS011;53333;51.976;20.144;2023-09-07T09:01:30;4.30;;;2.67;;
36663;SDS011;53333;51.976;20.144;2023-09-07T09:04:06;6.07;;;3.17;;
36663;SDS011;53333;51.976;20.144;2023-09-07T09:06:40;7.55;;;3.15;;
36663;SDS011;53333;51.976;20.144;2023-09-07T09:09:21;4.47;;;2.80;;
36663;SDS011;53333;51.976;20.144;2023-09-07T09:12:05;11.32;;;3.03;;
36663;SDS011;53333;51.976;20.144;2023-09-07T09:14:39;6.22;;;3.00;;
36663;SDS011;53333;51.976;20.144;2023-09-07T09:17:15;4.47;;;3.38;;
36663;SDS011;53333;51.976;20.144;2023-09-07T09:19:49;6.22;;;3.30;;
36663;SDS011;53333;51.976;20.144;2023-09-07T09:22:22;6.00;;;2.88;;
36663;SDS011;53333;51.976;20.144;2023-09-07T09:24:55;8.15;;;3.28;;
36663;SDS011;53333;51.976;20.144;2023-09-07T09:27:28;6.07;;;2.60;;
36663;SDS011;53333;51.976;20.144;2023-09-07T09:30:01;4.32;;;2.60;;
36663;SDS011;53333;51.976;20.144;2023-09-07T09:32:35;3.15;;;2.50;;
36663;SDS011;53333;51.976;20.144;2023-09-07T09:35:10;4.32;;;2.30;;
36663;SDS011;53333;51.976;20.144;2023-09-07T09:37:46;4.22;;;2.55;;
36663;SDS011;53333;51.976;20.144;2023-09-07T09:40:20;6.45;;;2.30;;
36663;SDS011;53333;51.976;20.144;2023-09-07T09:42:54;4.43;;;2.20;;
36663;SDS011;53333;51.976;20.144;2023-09-07T09:45:27;5.28;;;2.15;;
36663;SDS011;53333;51.976;20.144;2023-09-07T09:48:01;3.25;;;2.40;;
36663;SDS011;53333;51.976;20.144;2023-09-07T09:50:37;4.60;;;2.20;;
36663;SDS011;53333;51.976;20.144;2023-09-07T09:53:16;3.20;;;2.15;;
36663;SDS011;53333;51.976;20.144;2023-09-07T09:55:50;3.17;;;2.55;;
36663;SDS011;53333;51.976;20.144;2023-09-07T09:58:24;5.57;;;2.28;;
36663;SDS011;53333;51.976;20.144;2023-09-07T10:00:57;3.10;;;2.47;;
36663;SDS011;53333;51.976;20.144;2023-09-07T10:03:31;4.88;;;2.60;;
36663;SDS011;53333;51.976;20.144;2023-09-07T10:06:09;3.40;;;2.53;;
36663;SDS011;53333;51.976;20.144;2023-09-07T10:08:50;4.72;;;2.97;;
36663;SDS011;53333;51.976;20.144;2023-09-07T10:11:29;4.22;;;2.65;;
36663;SDS011;53333;51.976;20.144;2023-09-07T10:14:04;5.05;;;3.55;;
36663;SDS011;53333;51.976;20.144;2023-09-07T10:16:42;3.20;;;2.90;;
36663;SDS011;53333;51.976;20.144;2023-09-07T10:19:16;6.20;;;2.63;;
36663;SDS011;53333;51.976;20.144;2023-09-07T10:21:52;5.35;;;2.50;;
36663;SDS011;53333;51.976;20.144;2023-09-07T10:24:26;3.42;;;2.65;;
36663;SDS011;53333;51.976;20.144;2023-09-07T10:27:01;2.80;;;2.35;;
36663;SDS011;53333;51.976;20.144;2023-09-07T10:29:42;3.47;;;3.17;;
36663;SDS011;53333;51.976;20.144;2023-09-07T10:32:16;6.38;;;3.10;;
36663;SDS011;53333;51.976;20.144;2023-09-07T10:34:51;5.25;;;2.70;;
36663;SDS011;53333;51.976;20.144;2023-09-07T10:37:27;4.93;;;3.22;;
36663;SDS011;53333;51.976;20.144;2023-09-07T10:40:02;8.80;;;3.30;;
36663;SDS011;53333;51.976;20.144;2023-09-07T10:42:43;5.60;;;2.90;;
36663;SDS011;53333;51.976;20.144;2023-09-07T10:45:16;4.05;;;3.00;;
36663;SDS011;53333;51.976;20.144;2023-09-07T10:47:49;4.75;;;2.95;;
36663;SDS011;53333;51.976;20.144;2023-09-07T10:50:22;9.57;;;3.22;;
36663;SDS011;53333;51.976;20.144;2023-09-07T10:52:56;6.68;;;3.50;;
36663;SDS011;53333;51.976;20.144;2023-09-07T10:55:35;5.40;;;3.28;;
36663;SDS011;53333;51.976;20.144;2023-09-07T10:58:09;3.85;;;3.08;;
36663;SDS011;53333;51.976;20.144;2023-09-07T11:00:42;6.35;;;3.20;;
36663;SDS011;53333;51.976;20.144;2023-09-07T11:03:15;3.30;;;2.85;;
36663;SDS011;53333;51.976;20.144;2023-09-07T11:05:49;4.38;;;3.00;;
36663;SDS011;53333;51.976;20.144;2023-09-07T11:08:27;5.75;;;3.20;;
36663;SDS011;53333;51.976;20.144;2023-09-07T11:11:02;5.05;;;3.35;;
36663;SDS011;53333;51.976;20.144;2023-09-07T11:13:35;3.30;;;3.00;;
36663;SDS011;53333;51.976;20.144;2023-09-07T11:16:09;5.05;;;3.08;;
36663;SDS011;53333;51.976;20.144;2023-09-07T11:18:42;4.57;;;3.08;;
36663;SDS011;53333;51.976;20.144;2023-09-07T11:21:15;3.72;;;3.38;;
36663;SDS011;53333;51.976;20.144;2023-09-07T11:26:47;4.35;;;3.60;;
36663;SDS011;53333;51.976;20.144;2023-09-07T11:29:52;5.07;;;3.83;;
36663;SDS011;53333;51.976;20.144;2023-09-07T11:32:32;3.50;;;3.20;;
36663;SDS011;53333;51.976;20.144;2023-09-07T11:35:06;4.05;;;3.33;;
36663;SDS011;53333;51.976;20.144;2023-09-07T11:37:39;6.15;;;4.00;;
36663;SDS011;53333;51.976;20.144;2023-09-07T11:40:15;4.78;;;3.83;;
36663;SDS011;53333;51.976;20.144;2023-09-07T11:42:48;4.13;;;3.53;;
36663;SDS011;53333;51.976;20.144;2023-09-07T11:45:21;5.55;;;3.80;;
36663;SDS011;53333;51.976;20.144;2023-09-07T11:47:54;5.10;;;3.17;;
36663;SDS011;53333;51.976;20.144;2023-09-07T11:50:27;6.25;;;3.80;;
36663;SDS011;53333;51.976;20.144;2023-09-07T11:53:01;3.97;;;3.50;;
36663;SDS011;53333;51.976;20.144;2023-09-07T11:55:36;4.18;;;3.47;;
36663;SDS011;53333;51.976;20.144;2023-09-07T11:58:11;5.63;;;3.42;;
36663;SDS011;53333;51.976;20.144;2023-09-07T12:00:43;4.70;;;4.25;;
36663;SDS011;53333;51.976;20.144;2023-09-07T12:03:16;6.63;;;3.70;;
36663;SDS011;53333;51.976;20.144;2023-09-07T12:05:49;5.18;;;3.50;;
36663;SDS011;53333;51.976;20.144;2023-09-07T12:08:22;4.32;;;3.65;;
36663;SDS011;53333;51.976;20.144;2023-09-07T12:10:57;5.95;;;3.88;;
36663;SDS011;53333;51.976;20.144;2023-09-07T12:13:30;4.50;;;3.67;;
36663;SDS011;53333;51.976;20.144;2023-09-07T12:16:03;5.60;;;3.72;;
36663;SDS011;53333;51.976;20.144;2023-09-07T12:18:36;6.07;;;3.90;;
36663;SDS011;53333;51.976;20.144;2023-09-07T12:21:09;5.15;;;3.25;;
36663;SDS011;53333;51.976;20.144;2023-09-07T12:23:45;6.25;;;3.83;;
36663;SDS011;53333;51.976;20.144;2023-09-07T12:26:20;5.35;;;3.45;;
36663;SDS011;53333;51.976;20.144;2023-09-07T12:28:53;4.45;;;3.55;;
36663;SDS011;53333;51.976;20.144;2023-09-07T12:31:28;3.65;;;3.22;;
36663;SDS011;53333;51.976;20.144;2023-09-07T12:34:01;4.80;;;3.55;;
36663;SDS011;53333;51.976;20.144;2023-09-07T12:36:34;4.45;;;3.38;;
36663;SDS011;53333;51.976;20.144;2023-09-07T12:39:07;5.32;;;3.50;;
36663;SDS011;53333;51.976;20.144;2023-09-07T12:41:45;6.97;;;3.70;;
36663;SDS011;53333;51.976;20.144;2023-09-07T12:44:18;7.15;;;3.45;;
36663;SDS011;53333;51.976;20.144;2023-09-07T12:46:52;5.18;;;3.40;;
36663;SDS011;53333;51.976;20.144;2023-09-07T12:49:25;5.32;;;3.35;;
36663;SDS011;53333;51.976;20.144;2023-09-07T12:51:58;8.70;;;3.60;;
36663;SDS011;53333;51.976;20.144;2023-09-07T12:54:31;4.90;;;3.30;;
36663;SDS011;53333;51.976;20.144;2023-09-07T12:57:06;5.50;;;3.00;;
36663;SDS011;53333;51.976;20.144;2023-09-07T12:59:39;4.43;;;3.08;;
36663;SDS011;53333;51.976;20.144;2023-09-07T13:02:12;4.05;;;3.60;;
36663;SDS011;53333;51.976;20.144;2023-09-07T13:04:54;3.93;;;3.00;;
36663;SDS011;53333;51.976;20.144;2023-09-07T13:07:27;6.53;;;3.35;;
36663;SDS011;53333;51.976;20.144;2023-09-07T13:10:00;5.25;;;3.30;;
36663;SDS011;53333;51.976;20.144;2023-09-07T13:12:37;3.78;;;2.92;;
36663;SDS011;53333;51.976;20.144;2023-09-07T13:15:10;5.07;;;3.58;;
36663;SDS011;53333;51.976;20.144;2023-09-07T13:17:43;5.05;;;3.20;;
36663;SDS011;53333;51.976;20.144;2023-09-07T13:20:16;6.05;;;3.38;;
36663;SDS011;53333;51.976;20.144;2023-09-07T13:22:51;6.78;;;3.50;;
36663;SDS011;53333;51.976;20.144;2023-09-07T13:25:24;5.35;;;3.63;;
36663;SDS011;53333;51.976;20.144;2023-09-07T13:27:59;4.85;;;3.45;;
36663;SDS011;53333;51.976;20.144;2023-09-07T13:30:32;5.72;;;2.75;;
36663;SDS011;53333;51.976;20.144;2023-09-07T13:33:05;4.95;;;3.33;;
36663;SDS011;53333;51.976;20.144;2023-09-07T13:35:39;5.15;;;3.40;;
36663;SDS011;53333;51.976;20.144;2023-09-07T13:38:12;4.20;;;3.47;;
36663;SDS011;53333;51.976;20.144;2023-09-07T13:40:45;4.25;;;2.92;;
36663;SDS011;53333;51.976;20.144;2023-09-07T13:43:19;7.75;;;3.53;;
36663;SDS011;53333;51.976;20.144;2023-09-07T13:45:53;4.50;;;3.42;;
36663;SDS011;53333;51.976;20.144;2023-09-07T13:48:26;6.03;;;3.47;;
36663;SDS011;53333;51.976;20.144;2023-09-07T13:50:58;6.70;;;3.25;;
36663;SDS011;53333;51.976;20.144;2023-09-07T13:53:31;6.72;;;3.20;;
36663;SDS011;53333;51.976;20.144;2023-09-07T13:56:05;6.10;;;3.38;;
36663;SDS011;53333;51.976;20.144;2023-09-07T13:58:39;18.38;;;4.03;;
36663;SDS011;53333;51.976;20.144;2023-09-07T14:01:12;31.38;;;5.88;;
36663;SDS011;53333;51.976;20.144;2023-09-07T14:03:45;13.20;;;4.10;;
36663;SDS011;53333;51.976;20.144;2023-09-07T14:06:18;6.60;;;3.97;;
36663;SDS011;53333;51.976;20.144;2023-09-07T14:08:54;6.85;;;3.85;;
36663;SDS011;53333;51.976;20.144;2023-09-07T14:11:27;4.38;;;3.38;;
36663;SDS011;53333;51.976;20.144;2023-09-07T14:14:01;7.03;;;3.35;;
36663;SDS011;53333;51.976;20.144;2023-09-07T14:16:34;5.47;;;3.33;;
36663;SDS011;53333;51.976;20.144;2023-09-07T14:19:07;7.03;;;3.63;;
36663;SDS011;53333;51.976;20.144;2023-09-07T14:21:40;6.68;;;3.00;;
36663;SDS011;53333;51.976;20.144;2023-09-07T14:24:13;5.15;;;3.53;;
36663;SDS011;53333;51.976;20.144;2023-09-07T14:26:45;4.82;;;3.45;;
36663;SDS011;53333;51.976;20.144;2023-09-07T14:29:20;7.55;;;3.88;;
36663;SDS011;53333;51.976;20.144;2023-09-07T14:31:53;6.63;;;3.40;;
36663;SDS011;53333;51.976;20.144;2023-09-07T14:34:26;6.18;;;4.63;;
36663;SDS011;53333;51.976;20.144;2023-09-07T14:36:59;4.82;;;4.05;;
36663;SDS011;53333;51.976;20.144;2023-09-07T14:39:33;6.10;;;3.25;;
36663;SDS011;53333;51.976;20.144;2023-09-07T14:42:07;7.30;;;3.90;;
36663;SDS011;53333;51.976;20.144;2023-09-07T14:44:46;8.48;;;3.67;;
36663;SDS011;53333;51.976;20.144;2023-09-07T14:47:19;7.60;;;3.95;;
36663;SDS011;53333;51.976;20.144;2023-09-07T14:49:56;7.38;;;3.72;;
36663;SDS011;53333;51.976;20.144;2023-09-07T14:52:29;11.73;;;4.10;;
36663;SDS011;53333;51.976;20.144;2023-09-07T14:55:03;11.27;;;4.00;;
36663;SDS011;53333;51.976;20.144;2023-09-07T14:57:36;4.00;;;3.40;;
36663;SDS011;53333;51.976;20.144;2023-09-07T15:00:11;6.93;;;3.60;;
36663;SDS011;53333;51.976;20.144;2023-09-07T15:02:44;6.35;;;3.72;;
36663;SDS011;53333;51.976;20.144;2023-09-07T15:05:18;5.35;;;4.25;;
36663;SDS011;53333;51.976;20.144;2023-09-07T15:10:26;12.27;;;10.18;;
36663;SDS011;53333;51.976;20.144;2023-09-07T15:13:11;7.68;;;5.13;;
36663;SDS011;53333;51.976;20.144;2023-09-07T15:16:31;8.20;;;4.40;;
36663;SDS011;53333;51.976;20.144;2023-09-07T15:19:07;6.10;;;3.80;;
36663;SDS011;53333;51.976;20.144;2023-09-07T15:21:42;7.68;;;6.07;;
36663;SDS011;53333;51.976;20.144;2023-09-07T15:26:48;9.32;;;6.07;;
36663;SDS011;53333;51.976;20.144;2023-09-07T15:29:21;7.10;;;4.38;;
36663;SDS011;53333;51.976;20.144;2023-09-07T15:31:57;8.75;;;4.80;;
36663;SDS011;53333;51.976;20.144;2023-09-07T15:34:33;5.60;;;3.97;;
36663;SDS011;53333;51.976;20.144;2023-09-07T15:37:06;8.68;;;4.38;;